Weather observations for the past three days for
Devils Lake, Devils Lake Municipal Airport
Imperial (Metric)
Date Time (cdt) Wind (mph) Vis. (mi.) Weather Sky Cond. Temperature (ºF) Relative Humidity Wind Chill (°F) Heat Index (°F) Pressure Precipitation (in)
Air Dwpt 6 hour altimeter (in) sea level (mb) 1 hr 3 hr 6 hr
Max. Min.
08 04:56 SW 9 10.00 Overcast OVC110 43 28 56% 38 29.72 1007.4
08 03:56 SW 13 10.00 A Few Clouds FEW120 44.1 30 58% 38 29.72 1007.5
08 02:56 SW 8 10.00 Partly Cloudy SCT100 45 25 46% 41 29.73 1008.0
08 01:56 S 7 10.00 Overcast OVC095 44.1 32 63% 41 29.74 1008.4
08 00:56 Calm 10.00 Overcast OVC095 39.9 28.9 57 37.9 65% 29.76 1009.1
07 23:56 SW 5 10.00 Mostly Cloudy BKN100 43 30 60% 41 29.77 1009.5
07 22:56 Calm 10.00 Fair CLR 44.1 25 47% 29.78 1010.0
07 21:56 N 6 10.00 Fair CLR 41 27 57% 38 29.79 1010.2
07 20:56 N 7 10.00 Fair CLR 46.9 26.1 44% 44 29.77 1009.8
07 19:56 NW 8 10.00 Fair CLR 53.1 21.9 30% 29.77 1009.3
07 18:56 NW 13 10.00 Fair CLR 57 18 59 52 22% 29.76 1009.3
07 17:56 NW 13 10.00 Fair CLR 57 15.1 19% 29.76 1009.1
07 16:56 W 12 G 20 10.00 Fair CLR 57.9 17.1 20% 29.76 1009.4
07 15:56 W 12 G 22 10.00 Fair CLR 57 19 23% 29.78 1010.0
07 14:56 NW 12 G 18 10.00 Fair CLR 55 21 26% 29.8 1010.6
07 13:56 NW 12 G 18 10.00 A Few Clouds FEW075 54 19.9 26% 29.8 1010.8
07 12:56 NW 12 G 22 10.00 Fair CLR 53.1 21 53.1 30 28% 29.82 1011.4
07 11:56 W 9 G 16 10.00 Fair CLR 51.1 21.9 32% 29.84 1012.1
07 10:56 NW 10 10.00 Fair CLR 48.9 23 36% 45 29.85 1012.6
07 09:56 NW 8 10.00 Fair CLR 44.1 24.1 45% 40 29.86 1012.9
07 08:56 NW 9 10.00 Fair CLR 39.9 26.1 58% 34 29.86 1012.9
07 07:56 NW 7 10.00 Fair CLR 37.9 28 68% 33 29.86 1012.8
07 06:56 W 3 10.00 Fair CLR 30 25 33.1 27 82% 29.85 1012.6
07 05:56 SW 8 10.00 Fair CLR 32 28 85% 25 29.85 1012.6
07 04:56 Calm 10.00 Fair CLR 27 25 92% 29.85 1013.0
07 03:56 Calm 10.00 Fair CLR 30.9 27 85% 29.85 1013.0
07 02:56 N 3 10.00 Fair CLR 28.9 27 92% 29.86 1013.2
07 01:56 Calm 10.00 Fair CLR 32 28 85% 29.86 1013.0
07 00:56 SW 5 10.00 Fair CLR 34 28 48 30.9 79% 30 29.86 1013.2
06 23:56 Calm 10.00 Fair CLR 33.1 25 72% 29.86 1013.3
06 22:56 W 6 10.00 A Few Clouds FEW090 37 24.1 59% 33 29.88 1013.8
06 21:56 W 6 10.00 Mostly Cloudy BKN095 41 21.9 47% 38 29.89 1014.0
06 20:56 W 6 10.00 Overcast SCT070 OVC095 44.1 21 40% 41 29.89 1014.1
06 19:56 W 6 10.00 Mostly Cloudy BKN070 BKN095 46 21 37% 44 29.9 1014.2
06 18:56 NW 15 10.00 Overcast OVC070 48 19 48 41 32% 43 29.9 1014.4
06 17:56 N 7 10.00 Mostly Cloudy BKN065 BKN080 46 19.9 35% 43 29.92 1014.8
06 16:56 NW 6 10.00 Mostly Cloudy FEW060 BKN075 44.1 19.9 38% 41 29.94 1015.6
06 15:56 W 17 10.00 Overcast BKN060 OVC070 45 21 39% 38 29.95 1016.3
06 14:56 W 10 10.00 Overcast OVC060 45 21.9 40% 40 29.97 1016.8
06 13:56 W 13 10.00 Overcast OVC055 42.1 19.9 41% 36 29.99 1017.5
06 12:56 NW 13 10.00 Overcast OVC055 41 19 42.1 34 41% 34 30 1017.9
06 11:56 W 14 G 18 10.00 Overcast BKN046 OVC060 41 21.9 47% 34 30.01 1018.4
06 10:56 NW 14 10.00 Overcast SCT048 OVC060 37.9 21 51% 30 30.03 1019.1
06 09:56 NW 14 10.00 Overcast FEW038 BKN047 OVC060 37 21 52% 29 30.04 1019.3
06 08:56 NW 14 10.00 Overcast SCT045 OVC060 36 21 55% 28 30.03 1019.2
06 07:56 W 12 10.00 Overcast OVC050 35.1 21.9 59% 28 30.03 1019.1
06 06:56 W 7 10.00 Overcast OVC050 34 21.9 34 33.1 61% 29 30.02 1019.0
06 05:56 W 7 10.00 Overcast OVC046 33.1 21.9 64% 28 30.01 1018.7
06 04:56 W 6 10.00 Overcast OVC044 33.1 21.9 64% 28 30.01 1018.6
06 03:56 NW 6 10.00 Overcast OVC038 33.1 21.9 64% 28 30.01 1018.6
06 02:56 NW 7 10.00 Overcast OVC038 33.1 21.9 64% 28 30.01 1018.6
06 01:56 NW 5 10.00 Overcast OVC038 34 21 59% 30 30.01 1018.5
06 00:56 N 7 10.00 Overcast OVC038 34 21 36 34 59% 29 30.01 1018.6
05 23:56 N 8 10.00 Overcast OVC038 34 21 59% 28 30.01 1018.5
05 22:56 N 8 10.00 Overcast OVC038 34 21 59% 28 30.01 1018.6
05 21:56 N 8 10.00 Overcast OVC038 35.1 21 57% 29 30 1018.3
05 20:56 N 9 10.00 Overcast OVC042 35.1 21 57% 29 29.98 1017.5
05 19:56 N 9 10.00 Overcast OVC044 36 21 55% 30 29.97 1017.2
05 18:56 N 13 10.00 Overcast OVC044 36 21 37 36 55% 28 29.97 1017.0
05 17:56 N 13 10.00 Overcast OVC045 37 21 52% 30 29.96 1016.8
05 16:56 N 13 10.00 Overcast OVC045 37 21.9 54% 30 29.95 1016.4
05 15:56 N 13 10.00 Overcast OVC041 37 19.9 50% 30 29.94 1016.1
05 14:56 N 14 10.00 Overcast OVC037 36 21.9 57% 28 29.94 1016.1
05 13:56 N 13 G 21 10.00 Overcast SCT034 OVC044 37 21.9 54% 30 29.93 1015.8
05 12:56 N 13 10.00 Overcast BKN035 OVC048 36 21.9 37 30.9 57% 28 29.93 1015.5
05 11:56 N 12 10.00 Overcast SCT031 BKN036 OVC045 35.1 21.9 59% 28 29.92 1015.5
05 10:56 N 12 10.00 Overcast SCT021 BKN026 OVC046 34 24.1 67% 26 29.91 1015.1
05 09:56 N 12 10.00 Overcast SCT021 BKN029 OVC035 34 25 70% 26 29.91 1014.9
05 08:56 N 8 10.00 Mostly Cloudy BKN022 32 24.1 73% 25 29.89 1014.5
05 07:56 N 13 10.00 Mostly Cloudy BKN055 30.9 24.1 76% 22 29.88 1013.7
05 06:56 N 8 10.00 Overcast OVC050 30.9 25 36 30 79% 24 29.86 1013.1
05 05:56 N 5 10.00 Overcast BKN055 OVC110 30 26.1 85% 26 29.84 1012.6
Date Time (cdt) Wind (mph) Vis. (mi.) Weather Sky Cond. Air Dwpt Max. Min. Relative Humidity Wind Chill (°F) Heat Index (°F) altimeter (in) sea level (mb) 1 hr 3 hr 6 hr
6 hour
Temperature (ºF) Pressure Precipitation (in)